createdAt,value
2023-02-19T00:08:52.650Z,9.5
2023-02-19T00:24:02.263Z,9.4
2023-02-19T00:39:13.690Z,10.9
2023-02-19T00:54:23.816Z,14.9
2023-02-19T01:09:33.040Z,16.1
2023-02-19T01:24:42.506Z,16
2023-02-19T01:39:51.966Z,8.1
2023-02-19T01:55:01.464Z,4.9
2023-02-19T02:10:11.194Z,3.4
2023-02-19T02:25:21.608Z,4.3
2023-02-19T02:40:31.327Z,9.9
2023-02-19T02:55:40.514Z,14.5
2023-02-19T03:10:51.107Z,3
2023-02-19T03:26:00.965Z,2.9
2023-02-19T03:41:10.967Z,2.5
2023-02-19T03:56:21.960Z,2.4
2023-02-19T04:11:31.743Z,3
2023-02-19T04:26:41.026Z,2.5
2023-02-19T04:41:50.095Z,2
2023-02-19T04:56:59.828Z,1.7
2023-02-19T05:12:08.596Z,1.5
2023-02-19T05:27:18.139Z,2
2023-02-19T05:42:27.216Z,2.2
2023-02-19T06:00:58.752Z,3
2023-02-19T06:16:09.837Z,2
2023-02-19T06:31:19.296Z,2.8
2023-02-19T06:46:29.397Z,3.7
2023-02-19T07:01:38.830Z,4
2023-02-19T07:16:48.368Z,4.9
2023-02-19T07:31:57.703Z,4.2
2023-02-19T07:47:07.278Z,5.4
2023-02-19T08:02:17.098Z,5.4
2023-02-19T08:17:26.910Z,5.7
2023-02-19T08:32:36.843Z,6.8
2023-02-19T08:47:46.154Z,6.1
2023-02-19T09:02:55.770Z,6.7
2023-02-19T09:18:05.295Z,8.2
2023-02-19T09:33:14.697Z,5.9
2023-02-19T09:48:24.379Z,4.9
2023-02-19T10:03:33.522Z,5.7
2023-02-19T10:18:43.108Z,4.2
2023-02-19T10:33:52.646Z,4.5
2023-02-19T10:49:03.569Z,3.8
2023-02-19T11:04:15.379Z,4.3
2023-02-19T11:19:26.329Z,3
2023-02-19T11:34:36.744Z,2.8
2023-02-19T11:49:46.469Z,2.8
2023-02-19T12:04:56.557Z,2.7
2023-02-19T12:20:07.279Z,2.9
2023-02-19T12:35:17.935Z,2.6
2023-02-19T12:50:27.546Z,2.4
2023-02-19T13:05:37.057Z,1.8
2023-02-19T13:20:46.597Z,2.4
2023-02-19T13:35:55.959Z,1.7
2023-02-19T13:51:09.635Z,2.1
2023-02-19T14:06:18.589Z,1.9
2023-02-19T14:21:26.541Z,2
2023-02-19T14:36:35.545Z,3.1
2023-02-19T14:51:44.788Z,3.1
2023-02-19T15:06:54.030Z,3.7
2023-02-19T15:22:03.109Z,5.2
2023-02-19T15:37:12.300Z,5
2023-02-19T15:52:21.006Z,5.6
2023-02-19T16:07:31.261Z,4.6
2023-02-19T16:22:40.671Z,3.3
2023-02-19T16:37:49.826Z,3.3
2023-02-19T16:52:59.552Z,6
2023-02-19T17:08:09.002Z,3.5
2023-02-19T17:23:18.287Z,4.5
2023-02-19T17:38:27.579Z,6.8
2023-02-19T17:53:36.909Z,4.4
2023-02-19T18:08:46.157Z,6.5
2023-02-19T18:23:55.318Z,6.5
2023-02-19T18:39:05.223Z,6.5
2023-02-19T18:54:14.503Z,7.4
2023-02-19T19:09:23.950Z,6.9
2023-02-19T19:24:32.847Z,7
2023-02-19T19:39:42.805Z,5.9
2023-02-19T19:54:51.783Z,8.5
2023-02-19T20:10:01.191Z,8.4
2023-02-19T20:25:10.812Z,6.7
2023-02-19T20:40:19.961Z,6.8
2023-02-19T20:55:29.605Z,6.9
2023-02-19T21:10:38.724Z,8
2023-02-19T21:25:49.035Z,6.2
2023-02-19T21:40:58.667Z,6.6
2023-02-19T21:56:07.818Z,7.5
2023-02-19T22:11:51.177Z,7.8
2023-02-19T22:27:01.399Z,8.5
2023-02-19T22:42:10.648Z,8.6
2023-02-19T22:57:20.083Z,9.6
2023-02-19T23:12:29.122Z,9.8
2023-02-19T23:27:38.142Z,9.4
2023-02-19T23:42:47.582Z,9.3
2023-02-19T23:57:57.229Z,7.8
